Barbosa Ferraz, Brazil
Current Conditions -  °F | °C
As of 1:00 PM on Friday 24 Oct 2014 (Local Time) from SBMG Reporting Station
Few Clouds Few Clouds  
Wind Chill: 86°   Ceiling: Unl
Heat Index: 88°   Visibility: 6mi
Dew Point: 66°   Wind: 15mph
Humidity: 51%   Direction: 340°NNW
Pressure: 29.97"   Gusts: NA
Location:  24.03°S, 52.01°W
Report Text: SBMG 241500Z 34013KT 9999 FEW040 30/19 Q1015
Loading
Personal Weather Stations






























Interactive Weather Map
Tropical Storm Tracking
New forecast layout! Learn more

10-Day Weather Forecast

Advertisements
Track Severe Weather on mobile